Folkston, GA (31537)

11:13 PM EDT on July 25, 2016 (GMT -0400)
Riverside | | Change Station

Elev 84 ft 30.98 °N, 81.96 °W | Updated 2 hours ago

Clear
Clear
--
Feels Like --
N
-
Wind Variable Wind from North

Today
High -- | Low -- °F
--% Chance of Precip.
Yesterday
High -- | Low -- °F
Precip. -- in
Pressure 30.06 in
Visibility 10.0 miles
Clouds Clear
Dew Point Not available.
Humidity Not available.
Rainfall in
Snow Depth Not available.
6:41 AM 8:27 PM
Waning Gibbous, 59% visible
METAR KAYS 260255Z AUTO 18005KT 10SM CLR 29/25 A3006 RMK AO2 T02910246
Pressure 30.06 in
Visibility 10.0 miles
Clouds Clear
Dew Point Not available.
Humidity Not available.
Rainfall in
Snow Depth Not available.
6:41 AM 8:27 PM
Waning Gibbous, 59% visible
METAR KAYS 260255Z AUTO 18005KT 10SM CLR 29/25 A3006 RMK AO2 T02910246
Record highs are possible for parts of the Northeast Monday and Tuesday, as parts of the central U.S. take a little breather from the worst of summer's dog day heat.

Expansive high pressure in the upper atmosphere will focus on parts of the East and West this week, sending heat indices well into the triple digits from the Mid-Atlantic states into the South.

10-Day Weather Forecast

Almanac

Astronomy

Jul. 25, 2016 Rise Set
Actual Time
Civil Twilight
Nautical Twilight
Astronomical Twilight
Moon
Length of Visible Light
Length of Day
Tomorrow will be .
, % of the Moon is Illuminated

Today's Extremes

State Highs State Lows

Community

WunderPhotos

Upload Photos

1,927,514 photos uploaded!

WunderBlog® & News

Nearby

Air Quality

  Air Quality AQ Index Pollutant
Not available.

Snow Depth

Station Depth Elevation

Earthquake Activity

City Distance Mag. Time & Date
Minimum magnitude displayed is 2.5.

Coastal Water Temperatures

Place Temperature

Stations

Nearby Weather Stations

Station Location Temp. Windchill Dew Point Humidity Wind Precip. Elev Updated Type
                   

Watches & Warnings

There are currently no watches in effect.